createdAt,value
2018-10-16T00:03:14.727Z,89.19
2018-10-16T00:08:01.627Z,92.21
2018-10-16T00:12:44.583Z,91.69
2018-10-16T00:17:27.627Z,89.20
2018-10-16T00:22:10.504Z,91.00
2018-10-16T00:26:53.648Z,91.43
2018-10-16T00:31:36.639Z,92.72
2018-10-16T00:36:20.660Z,90.64
2018-10-16T00:41:03.557Z,91.41
2018-10-16T00:45:46.477Z,91.73
2018-10-16T00:50:30.601Z,93.03
2018-10-16T00:55:13.450Z,94.29
2018-10-16T00:59:56.343Z,93.13
2018-10-16T01:04:39.189Z,92.41
2018-10-16T01:09:23.136Z,92.14
2018-10-16T01:14:06.086Z,92.16
2018-10-16T01:18:50.317Z,91.02
2018-10-16T01:23:33.199Z,92.79
2018-10-16T01:28:16.197Z,91.27
2018-10-16T01:32:59.053Z,92.94
2018-10-16T01:37:42.431Z,91.96
2018-10-16T01:42:25.377Z,92.21
2018-10-16T01:47:08.281Z,92.72
2018-10-16T01:51:51.584Z,92.21
2018-10-16T01:56:34.585Z,91.21
2018-10-16T02:01:17.522Z,91.64
2018-10-16T02:06:01.575Z,93.17
2018-10-16T02:10:44.437Z,92.29
2018-10-16T02:15:27.405Z,94.28
2018-10-16T02:20:10.582Z,93.49
2018-10-16T02:24:53.454Z,92.96
2018-10-16T02:29:36.562Z,92.43
2018-10-16T02:34:19.462Z,92.26
2018-10-16T02:39:04.571Z,91.62
2018-10-16T02:43:47.453Z,91.41
2018-10-16T02:48:30.352Z,90.64
2018-10-16T02:53:13.233Z,91.19
2018-10-16T02:57:57.114Z,91.80
2018-10-16T03:02:40.050Z,90.42
2018-10-16T03:07:24.970Z,93.20
2018-10-16T03:12:07.868Z,92.27
2018-10-16T03:16:51.743Z,90.66
2018-10-16T03:21:35.353Z,91.71
2018-10-16T03:26:18.326Z,90.36
2018-10-16T03:31:01.291Z,89.54
2018-10-16T03:35:45.309Z,92.61
2018-10-16T03:40:28.209Z,92.40
2018-10-16T03:45:12.302Z,94.33
2018-10-16T03:49:56.257Z,95.24
2018-10-16T03:54:39.094Z,94.41
2018-10-16T03:59:22.050Z,91.60
2018-10-16T04:04:05.015Z,92.08
2018-10-16T04:08:48.819Z,91.36
2018-10-16T04:13:31.699Z,89.80
2018-10-16T04:18:14.584Z,92.85
2018-10-16T04:22:58.320Z,93.66
2018-10-16T04:27:41.416Z,89.80
2018-10-16T04:32:24.307Z,88.07
2018-10-16T04:37:08.623Z,87.64
2018-10-16T04:41:51.532Z,88.98
2018-10-16T04:46:34.506Z,88.89
2018-10-16T04:51:17.385Z,87.49
2018-10-16T04:56:04.504Z,85.53
2018-10-16T05:00:47.435Z,89.55
2018-10-16T05:05:30.423Z,88.27
2018-10-16T05:10:13.315Z,86.70
2018-10-16T05:14:56.173Z,86.88
2018-10-16T05:19:40.716Z,85.91
2018-10-16T05:24:23.585Z,85.65
2018-10-16T05:29:10.809Z,85.37
2018-10-16T05:33:53.693Z,84.78
2018-10-16T05:38:42.072Z,86.24
2018-10-16T05:43:24.948Z,88.45
2018-10-16T05:48:11.141Z,87.87
2018-10-16T05:52:54.021Z,87.42
2018-10-16T05:57:36.887Z,90.54
2018-10-16T06:02:19.766Z,88.72
2018-10-16T06:07:02.695Z,87.20
2018-10-16T06:11:45.932Z,89.25
2018-10-16T06:16:29.003Z,88.51
2018-10-16T06:21:11.915Z,88.59
2018-10-16T06:25:57.015Z,89.64
2018-10-16T06:30:48.123Z,89.06
2018-10-16T06:35:32.042Z,90.60
2018-10-16T06:40:14.929Z,90.70
2018-10-16T06:44:57.781Z,89.07
2018-10-16T06:49:40.618Z,88.40
2018-10-16T06:54:23.464Z,88.74
2018-10-16T06:59:06.445Z,86.73
2018-10-16T07:03:49.322Z,87.69
2018-10-16T07:08:33.198Z,87.80
2018-10-16T07:13:16.047Z,86.12
2018-10-16T07:17:59.925Z,85.92
2018-10-16T07:22:42.810Z,85.61
2018-10-16T07:27:26.822Z,85.30
2018-10-16T07:32:09.692Z,84.19
2018-10-16T07:36:54.630Z,82.17
2018-10-16T07:41:37.916Z,81.66
2018-10-16T07:46:22.956Z,81.04
2018-10-16T07:52:35.247Z,79.76
2018-10-16T07:57:20.414Z,79.53
2018-10-16T08:02:03.318Z,78.39
2018-10-16T08:06:49.691Z,77.77
2018-10-16T08:11:32.676Z,77.80
2018-10-16T08:16:16.705Z,78.35
2018-10-16T08:20:59.560Z,76.82
2018-10-16T08:25:44.441Z,77.49
2018-10-16T08:30:27.321Z,77.00
2018-10-16T08:35:10.319Z,74.91
2018-10-16T08:39:55.720Z,74.12
2018-10-16T08:45:15.712Z,73.87
2018-10-16T08:50:09.470Z,71.31
2018-10-16T08:54:52.384Z,70.17
2018-10-16T08:59:35.321Z,68.91
2018-10-16T09:04:18.477Z,68.12
2018-10-16T09:09:05.249Z,67.04
2018-10-16T09:13:48.162Z,65.40
2018-10-16T09:18:33.064Z,64.59
2018-10-16T09:23:15.915Z,63.16
2018-10-16T09:27:59.874Z,62.28
2018-10-16T09:32:42.711Z,62.63
2018-10-16T09:37:29.302Z,61.89
2018-10-16T09:42:12.348Z,60.12
2018-10-16T09:46:57.391Z,59.96
2018-10-16T09:51:40.266Z,58.35
2018-10-16T09:56:25.375Z,57.64
2018-10-16T10:01:14.577Z,59.71
2018-10-16T10:05:58.579Z,57.69
2018-10-16T10:10:41.471Z,59.24
2018-10-16T10:15:26.393Z,60.92
2018-10-16T10:20:09.687Z,61.87
2018-10-16T10:24:56.144Z,62.22
2018-10-16T10:29:39.093Z,62.74
2018-10-16T10:34:22.041Z,62.87
2018-10-16T10:39:12.268Z,60.74
2018-10-16T10:43:55.347Z,57.29
2018-10-16T10:48:39.419Z,54.72
2018-10-16T10:53:22.515Z,54.67
2018-10-16T10:58:07.487Z,53.77
2018-10-16T11:02:50.489Z,52.27
2018-10-16T11:07:33.556Z,51.94
2018-10-16T11:12:16.445Z,51.83
2018-10-16T11:17:02.999Z,51.82
2018-10-16T11:21:50.491Z,49.82
2018-10-16T11:26:35.093Z,47.67
2018-10-16T11:31:19.606Z,50.27
2018-10-16T11:36:06.568Z,51.23
2018-10-16T11:40:49.472Z,52.56
2018-10-16T11:45:33.436Z,52.75
2018-10-16T11:50:16.395Z,52.92
2018-10-16T12:00:14.418Z,52.01
2018-10-16T12:04:59.173Z,52.57
2018-10-16T12:09:50.661Z,51.32
2018-10-16T12:14:35.731Z,52.44
2018-10-16T12:19:25.262Z,53.66
2018-10-16T12:24:08.193Z,53.39
2018-10-16T12:28:51.011Z,57.16
2018-10-16T12:33:34.483Z,55.48
2018-10-16T12:38:18.607Z,57.87
2018-10-16T12:43:02.116Z,58.09
2018-10-16T12:47:45.602Z,57.53
2018-10-16T12:52:28.727Z,57.61
2018-10-16T12:57:12.511Z,57.56
2018-10-16T13:01:55.391Z,58.95
2018-10-16T13:06:40.325Z,59.08
2018-10-16T13:11:23.230Z,60.46
2018-10-16T13:16:06.341Z,61.65
2018-10-16T13:20:49.183Z,61.77
2018-10-16T13:25:35.880Z,61.01
2018-10-16T13:30:19.490Z,62.69
2018-10-16T13:35:03.571Z,63.03
2018-10-16T13:39:46.379Z,64.54
2018-10-16T13:44:30.287Z,65.35
2018-10-16T13:49:13.129Z,66.29
2018-10-16T13:53:55.970Z,66.39
2018-10-16T13:58:38.835Z,65.82
2018-10-16T14:03:21.713Z,66.65
2018-10-16T14:08:06.107Z,67.25
2018-10-16T14:12:49.010Z,66.89
2018-10-16T14:17:31.986Z,66.30
2018-10-16T14:22:15.500Z,66.69
2018-10-16T14:26:59.531Z,66.61
2018-10-16T14:31:42.379Z,65.84
2018-10-16T14:36:26.475Z,66.92
2018-10-16T14:41:09.554Z,65.75
2018-10-16T14:45:54.634Z,67.02
2018-10-16T14:50:48.407Z,66.46
2018-10-16T14:55:33.127Z,66.92
2018-10-16T15:00:27.960Z,65.54
2018-10-16T15:05:22.573Z,64.91
2018-10-16T15:10:09.716Z,64.37
2018-10-16T15:14:52.859Z,63.53
2018-10-16T15:19:35.741Z,64.18
2018-10-16T15:24:18.760Z,65.15
2018-10-16T15:29:01.667Z,68.78
2018-10-16T15:33:44.670Z,66.59
2018-10-16T15:38:27.557Z,66.18
2018-10-16T15:43:12.603Z,65.46
2018-10-16T15:47:58.036Z,68.08
2018-10-16T15:52:41.103Z,67.16
2018-10-16T15:57:25.414Z,66.65
2018-10-16T16:02:09.441Z,69.49
2018-10-16T16:06:52.379Z,69.66
2018-10-16T16:11:35.251Z,69.94
2018-10-16T16:16:19.357Z,70.86
2018-10-16T16:21:02.255Z,72.86
2018-10-16T16:25:46.812Z,74.91
2018-10-16T16:30:29.717Z,74.24
2018-10-16T16:35:13.551Z,74.50
2018-10-16T16:39:58.676Z,74.61
2018-10-16T16:44:42.758Z,75.96
2018-10-16T16:49:25.683Z,70.81
2018-10-16T16:54:10.390Z,72.58
2018-10-16T16:58:53.304Z,73.35
2018-10-16T17:03:36.417Z,72.50
2018-10-16T17:08:20.455Z,70.09
2018-10-16T17:13:04.035Z,70.76
2018-10-16T17:17:47.132Z,72.90
2018-10-16T17:22:30.138Z,74.62
2018-10-16T17:27:13.107Z,75.27
2018-10-16T17:31:58.232Z,76.37
2018-10-16T17:36:43.200Z,76.66
2018-10-16T17:41:27.085Z,75.64
2018-10-16T17:46:12.267Z,77.09
2018-10-16T17:50:57.917Z,77.62
2018-10-16T17:55:44.651Z,80.14
2018-10-16T18:00:33.023Z,79.84
2018-10-16T18:05:16.590Z,73.87
2018-10-16T18:10:00.311Z,74.26
2018-10-16T18:14:48.490Z,75.08
2018-10-16T18:19:33.636Z,73.43
2018-10-16T18:24:17.666Z,71.36
2018-10-16T18:29:03.180Z,73.99
2018-10-16T18:33:50.365Z,74.33
2018-10-16T18:38:39.460Z,72.25
2018-10-16T18:43:22.517Z,70.49
2018-10-16T18:48:05.563Z,76.35
2018-10-16T18:52:55.055Z,76.75
2018-10-16T18:57:39.150Z,77.50
2018-10-16T19:02:23.241Z,79.87
2018-10-16T19:07:08.347Z,80.27
2018-10-16T19:11:51.222Z,79.99
2018-10-16T19:16:34.308Z,80.83
2018-10-16T19:21:17.159Z,81.68
2018-10-16T19:26:01.242Z,77.56
2018-10-16T19:30:44.150Z,73.73
2018-10-16T19:35:29.289Z,72.16
2018-10-16T19:40:12.616Z,72.05
2018-10-16T19:44:57.628Z,72.22
2018-10-16T19:49:40.552Z,71.68
2018-10-16T19:54:24.696Z,75.82
2018-10-16T19:59:07.622Z,76.46
2018-10-16T20:03:50.708Z,77.33
2018-10-16T20:08:33.633Z,78.24
2018-10-16T20:13:17.755Z,77.57
2018-10-16T20:18:00.638Z,74.67
2018-10-16T20:22:43.547Z,73.16
2018-10-16T20:27:26.700Z,74.33
2018-10-16T20:32:09.568Z,73.17
2018-10-16T20:36:54.006Z,72.95
2018-10-16T20:41:36.928Z,77.69
2018-10-16T20:46:21.055Z,78.79
2018-10-16T20:51:03.967Z,79.68
2018-10-16T20:55:50.614Z,76.12
2018-10-16T21:00:33.521Z,74.17
2018-10-16T21:05:18.689Z,73.69
2018-10-16T21:10:01.461Z,74.56
2018-10-16T21:14:46.513Z,75.42
2018-10-16T21:19:29.468Z,74.23
2018-10-16T21:24:12.530Z,75.72
2018-10-16T21:28:55.458Z,75.92
2018-10-16T21:33:40.573Z,76.25
2018-10-16T21:38:23.461Z,74.93
2018-10-16T21:43:06.428Z,74.41
2018-10-16T21:47:49.217Z,74.69
2018-10-16T21:52:32.105Z,74.31
2018-10-16T21:57:15.034Z,74.00
2018-10-16T22:02:03.467Z,73.65
2018-10-16T22:06:48.869Z,75.35
2018-10-16T22:11:31.738Z,73.33
2018-10-16T22:16:15.758Z,73.46
2018-10-16T22:20:58.677Z,72.38
2018-10-16T22:25:42.793Z,71.86
2018-10-16T22:30:25.662Z,72.28
2018-10-16T22:35:10.041Z,72.74
2018-10-16T22:39:52.881Z,70.82
2018-10-16T22:44:36.909Z,72.42
2018-10-16T22:49:19.750Z,70.32
2018-10-16T22:54:03.673Z,71.06
2018-10-16T22:58:46.543Z,69.20
2018-10-16T23:03:29.418Z,68.64
2018-10-16T23:08:12.263Z,69.00
2018-10-16T23:13:04.704Z,70.40
2018-10-16T23:17:47.563Z,71.39
2018-10-16T23:22:30.505Z,68.47
2018-10-16T23:27:13.421Z,68.47
2018-10-16T23:31:56.339Z,68.07
2018-10-16T23:36:39.329Z,69.19
2018-10-16T23:41:22.186Z,69.47
2018-10-16T23:46:06.815Z,68.85
2018-10-16T23:50:49.720Z,68.88
2018-10-16T23:55:33.689Z,68.36
